Port Richey, Florida
Current Conditions -  °F | °C
As of 5:53 PM on Saturday 20 Dec 2014 (Local Time) from KBKV Reporting Station
Broken Clouds Broken Clouds  
Wind Chill: 69°   Ceiling: 11000
Heat Index: 69°   Visibility: 10mi
Dew Point: 57°   Wind: 5mph
Humidity: 65%   Direction: 320°NW
Pressure: 30.07"   Gusts: NA
Location:  28.27°N, 82.73°W
Report Text: KBKV 202253Z AUTO 32004KT 10SM BKN110 21/14 A3007 RMK AO2 SLP180 T02060139
Loading
Personal Weather Stations






























Interactive Weather Map New forecast layout! Learn more

10-Day Weather Forecast

Advertisements
Track Severe Weather on mobile